sensor_id;sensor_type;location;lat;lon;timestamp;pressure;altitude;pressure_sealevel;temperature;humidity
59419;BME280;45224;50.904;6.038;2023-05-25T00:01:09;100664.69;;;11.38;76.45
59419;BME280;45224;50.904;6.038;2023-05-25T00:02:40;100655.97;;;11.29;76.77
59419;BME280;45224;50.904;6.038;2023-05-25T00:04:11;100659.50;;;11.36;76.34
59419;BME280;45224;50.904;6.038;2023-05-25T00:05:46;100662.94;;;11.35;76.49
59419;BME280;45224;50.904;6.038;2023-05-25T00:07:17;100667.34;;;11.42;75.90
59419;BME280;45224;50.904;6.038;2023-05-25T00:08:48;100657.81;;;11.41;76.24
59419;BME280;45224;50.904;6.038;2023-05-25T00:10:21;100663.03;;;11.44;75.39
59419;BME280;45224;50.904;6.038;2023-05-25T00:11:52;100665.63;;;11.44;75.73
59419;BME280;45224;50.904;6.038;2023-05-25T00:13:22;100662.22;;;11.48;75.20
59419;BME280;45224;50.904;6.038;2023-05-25T00:14:53;100659.63;;;11.47;75.37
59419;BME280;45224;50.904;6.038;2023-05-25T00:16:23;100663.91;;;11.43;75.47
59419;BME280;45224;50.904;6.038;2023-05-25T00:17:54;100666.44;;;11.39;75.80
59419;BME280;45224;50.904;6.038;2023-05-25T00:19:24;100659.47;;;11.33;76.08
59419;BME280;45224;50.904;6.038;2023-05-25T00:20:54;100659.47;;;11.35;75.93
59419;BME280;45224;50.904;6.038;2023-05-25T00:22:25;100660.34;;;11.35;76.23
59419;BME280;45224;50.904;6.038;2023-05-25T00:23:58;100660.22;;;11.23;77.42
59419;BME280;45224;50.904;6.038;2023-05-25T00:25:28;100648.81;;;11.07;78.27
59419;BME280;45224;50.904;6.038;2023-05-25T00:26:59;100656.56;;;11.05;78.19
59419;BME280;45224;50.904;6.038;2023-05-25T00:28:30;100651.19;;;10.90;79.44
59419;BME280;45224;50.904;6.038;2023-05-25T00:30:01;100647.66;;;10.82;79.98
59419;BME280;45224;50.904;6.038;2023-05-25T00:31:31;100649.44;;;10.86;80.13
59419;BME280;45224;50.904;6.038;2023-05-25T00:33:03;100651.28;;;10.96;78.52
59419;BME280;45224;50.904;6.038;2023-05-25T00:34:34;100657.44;;;11.07;77.66
59419;BME280;45224;50.904;6.038;2023-05-25T00:36:05;100648.00;;;11.08;77.57
59419;BME280;45224;50.904;6.038;2023-05-25T00:37:37;100656.56;;;11.05;78.02
59419;BME280;45224;50.904;6.038;2023-05-25T00:39:08;100661.75;;;11.05;78.13
59419;BME280;45224;50.904;6.038;2023-05-25T00:40:40;100659.09;;;11.01;78.54
59419;BME280;45224;50.904;6.038;2023-05-25T00:42:10;100651.31;;;10.99;78.47
59419;BME280;45224;50.904;6.038;2023-05-25T00:43:44;100649.53;;;10.92;78.96
59419;BME280;45224;50.904;6.038;2023-05-25T00:45:15;100655.50;;;10.88;79.52
59419;BME280;45224;50.904;6.038;2023-05-25T00:46:47;100651.94;;;10.80;79.70
59419;BME280;45224;50.904;6.038;2023-05-25T00:48:19;100650.28;;;10.86;79.31
59419;BME280;45224;50.904;6.038;2023-05-25T00:49:50;100655.50;;;10.89;79.12
59419;BME280;45224;50.904;6.038;2023-05-25T00:51:20;100652.09;;;10.92;78.47
59419;BME280;45224;50.904;6.038;2023-05-25T00:52:51;100654.78;;;10.98;78.04
59419;BME280;45224;50.904;6.038;2023-05-25T00:54:22;100651.34;;;11.01;77.89
59419;BME280;45224;50.904;6.038;2023-05-25T00:56:02;100649.59;;;11.01;78.03
59419;BME280;45224;50.904;6.038;2023-05-25T00:57:35;100654.78;;;10.98;78.04
59419;BME280;45224;50.904;6.038;2023-05-25T00:59:09;100652.91;;;10.88;79.11
59419;BME280;45224;50.904;6.038;2023-05-25T01:00:42;100654.47;;;10.76;80.51
59419;BME280;45224;50.904;6.038;2023-05-25T01:02:15;100654.41;;;10.70;81.07
59419;BME280;45224;50.904;6.038;2023-05-25T01:03:50;100655.94;;;10.56;81.74
59419;BME280;45224;50.904;6.038;2023-05-25T01:05:24;100654.84;;;10.38;83.20
59419;BME280;45224;50.904;6.038;2023-05-25T01:06:58;100654.91;;;10.45;83.01
59419;BME280;45224;50.904;6.038;2023-05-25T01:08:32;100649.47;;;10.28;84.01
59419;BME280;45224;50.904;6.038;2023-05-25T01:10:09;100653.78;;;10.30;84.20
59419;BME280;45224;50.904;6.038;2023-05-25T01:11:41;100652.06;;;10.28;84.42
59419;BME280;45224;50.904;6.038;2023-05-25T01:13:16;100650.34;;;10.28;84.19
59419;BME280;45224;50.904;6.038;2023-05-25T01:14:47;100660.91;;;10.40;83.04
59419;BME280;45224;50.904;6.038;2023-05-25T01:16:22;100654.91;;;10.45;82.97
59419;BME280;45224;50.904;6.038;2023-05-25T01:17:56;100649.00;;;10.52;82.63
59419;BME280;45224;50.904;6.038;2023-05-25T01:19:28;100657.69;;;10.57;81.94
59419;BME280;45224;50.904;6.038;2023-05-25T01:22:59;100661.13;;;10.59;82.62
59419;BME280;45224;50.904;6.038;2023-05-25T01:24:40;100654.34;;;10.67;82.14
59419;BME280;45224;50.904;6.038;2023-05-25T01:26:15;100655.94;;;10.56;83.63
59419;BME280;45224;50.904;6.038;2023-05-25T01:28:10;100659.34;;;10.52;83.77
59419;BME280;45224;50.904;6.038;2023-05-25T01:29:44;100656.91;;;10.63;82.90
59419;BME280;45224;50.904;6.038;2023-05-25T01:31:17;100655.97;;;10.59;83.39
59419;BME280;45224;50.904;6.038;2023-05-25T01:32:50;100660.16;;;10.49;84.24
59419;BME280;45224;50.904;6.038;2023-05-25T01:34:23;100660.16;;;10.51;84.28
59419;BME280;45224;50.904;6.038;2023-05-25T01:35:54;100658.50;;;10.56;83.75
59419;BME280;45224;50.904;6.038;2023-05-25T01:37:26;100653.34;;;10.56;83.53
59419;BME280;45224;50.904;6.038;2023-05-25T01:38:56;100654.28;;;10.61;82.87
59419;BME280;45224;50.904;6.038;2023-05-25T01:40:27;100661.16;;;10.60;83.25
59419;BME280;45224;50.904;6.038;2023-05-25T01:41:58;100652.69;;;10.69;82.29
59419;BME280;45224;50.904;6.038;2023-05-25T01:43:29;100652.72;;;10.72;81.64
59419;BME280;45224;50.904;6.038;2023-05-25T01:45:00;100650.22;;;10.82;81.17
59419;BME280;45224;50.904;6.038;2023-05-25T01:46:37;100656.31;;;10.84;81.45
59419;BME280;45224;50.904;6.038;2023-05-25T01:48:34;100662.47;;;10.93;80.63
59419;BME280;45224;50.904;6.038;2023-05-25T01:50:17;100659.91;;;10.95;80.37
59419;BME280;45224;50.904;6.038;2023-05-25T01:52:03;100667.66;;;10.93;80.22
59419;BME280;45224;50.904;6.038;2023-05-25T01:53:42;100666.63;;;10.81;81.21
59419;BME280;45224;50.904;6.038;2023-05-25T01:55:16;100668.13;;;10.65;82.35
59419;BME280;45224;50.904;6.038;2023-05-25T01:56:48;100668.16;;;10.66;81.89
59419;BME280;45224;50.904;6.038;2023-05-25T01:58:21;100664.59;;;10.58;82.37
59419;BME280;45224;50.904;6.038;2023-05-25T01:59:54;100654.06;;;10.46;82.71
59419;BME280;45224;50.904;6.038;2023-05-25T02:01:29;100660.94;;;10.44;82.95
59419;BME280;45224;50.904;6.038;2023-05-25T02:03:01;100663.53;;;10.44;83.31
59419;BME280;45224;50.904;6.038;2023-05-25T02:04:32;100661.72;;;10.39;83.90
59419;BME280;45224;50.904;6.038;2023-05-25T02:06:03;100657.44;;;10.41;83.22
59419;BME280;45224;50.904;6.038;2023-05-25T02:07:35;100660.94;;;10.44;83.28
59419;BME280;45224;50.904;6.038;2023-05-25T02:09:05;100659.19;;;10.43;82.81
59419;BME280;45224;50.904;6.038;2023-05-25T02:10:36;100655.78;;;10.44;82.78
59419;BME280;45224;50.904;6.038;2023-05-25T02:12:06;100667.84;;;10.46;83.07
59419;BME280;45224;50.904;6.038;2023-05-25T02:13:37;100666.22;;;10.50;82.66
59419;BME280;45224;50.904;6.038;2023-05-25T02:15:08;100667.13;;;10.53;82.47
59419;BME280;45224;50.904;6.038;2023-05-25T02:16:38;100674.75;;;10.46;83.42
59419;BME280;45224;50.904;6.038;2023-05-25T02:18:09;100666.22;;;10.50;82.87
59419;BME280;45224;50.904;6.038;2023-05-25T02:19:40;100661.91;;;10.50;82.79
59419;BME280;45224;50.904;6.038;2023-05-25T02:21:11;100663.66;;;10.53;82.47
59419;BME280;45224;50.904;6.038;2023-05-25T02:22:41;100667.97;;;10.54;82.63
59419;BME280;45224;50.904;6.038;2023-05-25T02:24:12;100662.41;;;10.28;85.08
59419;BME280;45224;50.904;6.038;2023-05-25T02:25:42;100664.75;;;10.14;86.51
59419;BME280;45224;50.904;6.038;2023-05-25T02:27:13;100669.31;;;10.30;85.18
59419;BME280;45224;50.904;6.038;2023-05-25T02:28:44;100667.56;;;10.28;85.34
59419;BME280;45224;50.904;6.038;2023-05-25T02:30:14;100671.53;;;10.07;87.16
59419;BME280;45224;50.904;6.038;2023-05-25T02:31:45;100666.84;;;9.83;89.10
59419;BME280;45224;50.904;6.038;2023-05-25T02:33:15;100665.63;;;9.64;90.31
59419;BME280;45224;50.904;6.038;2023-05-25T02:34:47;100661.94;;;9.48;91.62
59419;BME280;45224;50.904;6.038;2023-05-25T02:36:18;100661.56;;;9.29;92.80
59419;BME280;45224;50.904;6.038;2023-05-25T02:37:49;100661.63;;;9.32;92.49
59419;BME280;45224;50.904;6.038;2023-05-25T02:39:19;100670.34;;;9.38;92.74
59419;BME280;45224;50.904;6.038;2023-05-25T02:40:50;100662.47;;;9.31;92.39
59419;BME280;45224;50.904;6.038;2023-05-25T02:42:20;100664.28;;;9.36;92.26
59419;BME280;45224;50.904;6.038;2023-05-25T02:43:52;100665.78;;;9.24;92.65
59419;BME280;45224;50.904;6.038;2023-05-25T02:45:23;100662.31;;;9.22;92.84
59419;BME280;45224;50.904;6.038;2023-05-25T02:46:53;100672.63;;;9.22;93.23
59419;BME280;45224;50.904;6.038;2023-05-25T02:48:24;100669.13;;;9.20;92.84
59419;BME280;45224;50.904;6.038;2023-05-25T02:49:54;100666.34;;;9.09;93.48
59419;BME280;45224;50.904;6.038;2023-05-25T02:51:26;100675.13;;;9.18;93.27
59419;BME280;45224;50.904;6.038;2023-05-25T02:52:58;100674.19;;;9.14;93.11
59419;BME280;45224;50.904;6.038;2023-05-25T02:54:28;100681.28;;;9.24;92.09
59419;BME280;45224;50.904;6.038;2023-05-25T02:55:59;100674.97;;;9.10;92.91
59419;BME280;45224;50.904;6.038;2023-05-25T02:57:35;100665.47;;;9.09;92.99
59419;BME280;45224;50.904;6.038;2023-05-25T02:59:08;100675.06;;;9.14;92.41
59419;BME280;45224;50.904;6.038;2023-05-25T03:00:39;100684.44;;;9.11;93.17
59419;BME280;45224;50.904;6.038;2023-05-25T03:02:13;100674.97;;;9.10;93.05
59419;BME280;45224;50.904;6.038;2023-05-25T03:03:44;100675.91;;;9.15;92.17
59419;BME280;45224;50.904;6.038;2023-05-25T03:05:16;100680.91;;;9.07;92.64
59419;BME280;45224;50.904;6.038;2023-05-25T03:06:48;100681.94;;;9.14;91.91
59419;BME280;45224;50.904;6.038;2023-05-25T03:08:22;100684.91;;;8.93;94.19
59419;BME280;45224;50.904;6.038;2023-05-25T03:09:52;100683.41;;;9.01;92.99
59419;BME280;45224;50.904;6.038;2023-05-25T03:11:24;100691.16;;;9.03;93.39
59419;BME280;45224;50.904;6.038;2023-05-25T03:12:55;100687.53;;;8.94;93.83
59419;BME280;45224;50.904;6.038;2023-05-25T03:14:26;100690.97;;;8.93;93.93
59419;BME280;45224;50.904;6.038;2023-05-25T03:16:05;100686.78;;;8.99;93.54
59419;BME280;45224;50.904;6.038;2023-05-25T03:17:35;100691.03;;;8.97;93.46
59419;BME280;45224;50.904;6.038;2023-05-25T03:19:06;100682.16;;;8.84;94.54
59419;BME280;45224;50.904;6.038;2023-05-25T03:20:39;100689.22;;;8.92;94.15
59419;BME280;45224;50.904;6.038;2023-05-25T03:22:10;100690.78;;;8.86;94.61
59419;BME280;45224;50.904;6.038;2023-05-25T03:23:41;100686.53;;;8.88;93.98
59419;BME280;45224;50.904;6.038;2023-05-25T03:25:12;100692.75;;;8.98;93.52
59419;BME280;45224;50.904;6.038;2023-05-25T03:26:43;100698.13;;;9.07;92.78
59419;BME280;45224;50.904;6.038;2023-05-25T03:28:13;100698.84;;;9.00;93.20
59419;BME280;45224;50.904;6.038;2023-05-25T03:29:44;100697.06;;;8.97;93.83
59419;BME280;45224;50.904;6.038;2023-05-25T03:31:14;100705.75;;;9.02;93.28
59419;BME280;45224;50.904;6.038;2023-05-25T03:32:45;100702.16;;;8.94;94.19
59419;BME280;45224;50.904;6.038;2023-05-25T03:34:15;100700.50;;;8.98;94.06
59419;BME280;45224;50.904;6.038;2023-05-25T03:35:46;100703.16;;;9.02;93.51
59419;BME280;45224;50.904;6.038;2023-05-25T03:37:16;100705.09;;;9.11;92.39
59419;BME280;45224;50.904;6.038;2023-05-25T03:38:47;100700.59;;;9.02;93.31
59419;BME280;45224;50.904;6.038;2023-05-25T03:40:18;100703.22;;;9.04;93.49
59419;BME280;45224;50.904;6.038;2023-05-25T03:41:48;100710.84;;;8.99;93.54
59419;BME280;45224;50.904;6.038;2023-05-25T03:43:20;100705.53;;;8.93;94.17
59419;BME280;45224;50.904;6.038;2023-05-25T03:44:51;100712.25;;;8.85;94.39
59419;BME280;45224;50.904;6.038;2023-05-25T03:46:22;100710.34;;;8.76;94.65
59419;BME280;45224;50.904;6.038;2023-05-25T03:47:52;100721.78;;;8.87;95.20
59419;BME280;45224;50.904;6.038;2023-05-25T03:49:24;100708.91;;;8.89;94.32
59419;BME280;45224;50.904;6.038;2023-05-25T03:50:57;100709.97;;;8.99;93.90
59419;BME280;45224;50.904;6.038;2023-05-25T03:52:27;100715.94;;;8.96;93.82
59419;BME280;45224;50.904;6.038;2023-05-25T03:53:58;100710.72;;;8.93;93.40
59419;BME280;45224;50.904;6.038;2023-05-25T03:55:28;100727.16;;;8.97;93.75
59419;BME280;45224;50.904;6.038;2023-05-25T03:56:59;100726.34;;;9.01;93.55
59419;BME280;45224;50.904;6.038;2023-05-25T03:58:31;100717.78;;;9.02;93.45
59419;BME280;45224;50.904;6.038;2023-05-25T04:00:01;100710.88;;;9.01;92.94
59419;BME280;45224;50.904;6.038;2023-05-25T04:01:43;100717.88;;;9.06;92.68
59419;BME280;45224;50.904;6.038;2023-05-25T04:03:13;100713.72;;;9.13;92.21
59419;BME280;45224;50.904;6.038;2023-05-25T04:04:44;100724.84;;;9.10;92.62
59419;BME280;45224;50.904;6.038;2023-05-25T04:06:14;100720.56;;;9.11;92.58
59419;BME280;45224;50.904;6.038;2023-05-25T04:07:48;100724.19;;;9.19;91.64
59419;BME280;45224;50.904;6.038;2023-05-25T04:09:18;100727.59;;;9.18;91.79
59419;BME280;45224;50.904;6.038;2023-05-25T04:10:49;100716.13;;;9.05;93.11
59419;BME280;45224;50.904;6.038;2023-05-25T04:12:20;100726.88;;;8.84;94.77
59419;BME280;45224;50.904;6.038;2023-05-25T04:13:51;100726.22;;;8.94;94.81
59419;BME280;45224;50.904;6.038;2023-05-25T04:15:21;100737.47;;;8.97;94.86
59419;BME280;45224;50.904;6.038;2023-05-25T04:17:18;100737.38;;;8.93;95.43
59419;BME280;45224;50.904;6.038;2023-05-25T04:18:51;100733.31;;;9.03;93.97
59419;BME280;45224;50.904;6.038;2023-05-25T04:20:23;100738.00;;;8.83;95.73
59419;BME280;45224;50.904;6.038;2023-05-25T04:21:54;100727.63;;;8.79;96.37
59419;BME280;45224;50.904;6.038;2023-05-25T04:23:25;100742.31;;;8.83;96.75
59419;BME280;45224;50.904;6.038;2023-05-25T04:24:57;100736.31;;;8.84;96.35
59419;BME280;45224;50.904;6.038;2023-05-25T04:26:27;100745.47;;;8.71;97.84
59419;BME280;45224;50.904;6.038;2023-05-25T04:27:59;100741.94;;;8.66;99.02
59419;BME280;45224;50.904;6.038;2023-05-25T04:29:49;100746.94;;;8.59;99.83
59419;BME280;45224;50.904;6.038;2023-05-25T04:31:38;100747.91;;;8.65;99.19
59419;BME280;45224;50.904;6.038;2023-05-25T04:33:18;100753.69;;;8.54;99.98
59419;BME280;45224;50.904;6.038;2023-05-25T04:35:12;100757.19;;;8.56;100.00
59419;BME280;45224;50.904;6.038;2023-05-25T04:36:48;100758.97;;;8.61;100.00
59419;BME280;45224;50.904;6.038;2023-05-25T04:38:19;100761.09;;;8.77;98.80
59419;BME280;45224;50.904;6.038;2023-05-25T04:39:51;100755.66;;;8.65;100.00
59419;BME280;45224;50.904;6.038;2023-05-25T04:41:22;100757.59;;;8.75;99.68
59419;BME280;45224;50.904;6.038;2023-05-25T04:42:56;100766.59;;;8.54;100.00
59419;BME280;45224;50.904;6.038;2023-05-25T04:44:26;100769.44;;;8.67;100.00
59419;BME280;45224;50.904;6.038;2023-05-25T04:45:59;100766.84;;;8.67;100.00
59419;BME280;45224;50.904;6.038;2023-05-25T04:47:30;100770.16;;;8.59;100.00
59419;BME280;45224;50.904;6.038;2023-05-25T04:49:00;100763.56;;;8.72;100.00
59419;BME280;45224;50.904;6.038;2023-05-25T04:50:31;100767.50;;;8.56;100.00
59419;BME280;45224;50.904;6.038;2023-05-25T04:52:02;100767.84;;;8.72;100.00
59419;BME280;45224;50.904;6.038;2023-05-25T04:53:34;100764.66;;;8.82;99.76
59419;BME280;45224;50.904;6.038;2023-05-25T04:55:06;100771.03;;;8.98;98.34
59419;BME280;45224;50.904;6.038;2023-05-25T04:56:39;100766.94;;;9.08;97.59
59419;BME280;45224;50.904;6.038;2023-05-25T04:58:10;100770.41;;;9.10;97.65
59419;BME280;45224;50.904;6.038;2023-05-25T04:59:41;100768.78;;;9.15;96.93
59419;BME280;45224;50.904;6.038;2023-05-25T05:01:11;100773.88;;;9.12;97.76
59419;BME280;45224;50.904;6.038;2023-05-25T05:02:42;100780.72;;;9.10;98.12
59419;BME280;45224;50.904;6.038;2023-05-25T05:04:13;100765.03;;;9.01;98.12
59419;BME280;45224;50.904;6.038;2023-05-25T05:05:46;100768.44;;;8.98;98.95
59419;BME280;45224;50.904;6.038;2023-05-25T05:07:23;100778.81;;;9.00;99.21
59419;BME280;45224;50.904;6.038;2023-05-25T05:08:54;100784.81;;;9.00;99.33
59419;BME280;45224;50.904;6.038;2023-05-25T05:10:25;100782.56;;;9.14;98.71
59419;BME280;45224;50.904;6.038;2023-05-25T05:12:00;100779.47;;;9.30;97.00
59419;BME280;45224;50.904;6.038;2023-05-25T05:13:33;100783.00;;;9.36;96.90
59419;BME280;45224;50.904;6.038;2023-05-25T05:15:04;100777.78;;;9.32;97.37
59419;BME280;45224;50.904;6.038;2023-05-25T05:16:36;100782.66;;;9.20;97.98
59419;BME280;45224;50.904;6.038;2023-05-25T05:18:07;100781.81;;;9.20;98.93
59419;BME280;45224;50.904;6.038;2023-05-25T05:19:38;100788.88;;;9.30;98.33
59419;BME280;45224;50.904;6.038;2023-05-25T05:21:11;100779.75;;;9.46;97.44
59419;BME280;45224;50.904;6.038;2023-05-25T05:22:42;100779.94;;;9.55;96.36
59419;BME280;45224;50.904;6.038;2023-05-25T05:24:13;100785.94;;;9.54;96.55
59419;BME280;45224;50.904;6.038;2023-05-25T05:25:44;100786.94;;;9.59;96.79
59419;BME280;45224;50.904;6.038;2023-05-25T05:27:15;100787.09;;;9.68;95.86
59419;BME280;45224;50.904;6.038;2023-05-25T05:28:50;100787.09;;;9.68;96.29
59419;BME280;45224;50.904;6.038;2023-05-25T05:30:22;100801.00;;;9.32;97.60
59419;BME280;45224;50.904;6.038;2023-05-25T05:31:54;100798.84;;;9.54;97.90
59419;BME280;45224;50.904;6.038;2023-05-25T05:33:25;100792.41;;;9.76;96.61
59419;BME280;45224;50.904;6.038;2023-05-25T05:34:56;100799.34;;;9.79;96.63
59419;BME280;45224;50.904;6.038;2023-05-25T05:36:45;100797.41;;;9.68;97.33
59419;BME280;45224;50.904;6.038;2023-05-25T05:38:16;100799.88;;;9.61;96.96
59419;BME280;45224;50.904;6.038;2023-05-25T05:39:46;100798.28;;;9.67;97.20
59419;BME280;45224;50.904;6.038;2023-05-25T05:41:17;100800.72;;;9.61;97.89
59419;BME280;45224;50.904;6.038;2023-05-25T05:42:52;100796.63;;;9.71;97.35
59419;BME280;45224;50.904;6.038;2023-05-25T05:44:22;100796.16;;;9.92;96.55
59419;BME280;45224;50.904;6.038;2023-05-25T05:45:53;100791.53;;;9.76;97.23
59419;BME280;45224;50.904;6.038;2023-05-25T05:47:24;100799.88;;;10.07;96.06
59419;BME280;45224;50.904;6.038;2023-05-25T05:48:54;100800.22;;;10.27;94.66
59419;BME280;45224;50.904;6.038;2023-05-25T05:50:26;100806.50;;;10.39;94.14
59419;BME280;45224;50.904;6.038;2023-05-25T05:51:57;100801.53;;;10.52;92.84
59419;BME280;45224;50.904;6.038;2023-05-25T05:53:27;100806.38;;;10.33;93.65
59419;BME280;45224;50.904;6.038;2023-05-25T05:54:59;100807.53;;;10.51;94.25
59419;BME280;45224;50.904;6.038;2023-05-25T05:56:29;100809.47;;;10.61;93.70
59419;BME280;45224;50.904;6.038;2023-05-25T05:58:00;100814.75;;;10.70;93.40
59419;BME280;45224;50.904;6.038;2023-05-25T05:59:31;100811.44;;;10.77;92.85
59419;BME280;45224;50.904;6.038;2023-05-25T06:01:02;100820.31;;;10.95;91.61
59419;BME280;45224;50.904;6.038;2023-05-25T06:02:32;100822.31;;;11.14;90.50
59419;BME280;45224;50.904;6.038;2023-05-25T06:04:04;100819.00;;;11.25;89.92
59419;BME280;45224;50.904;6.038;2023-05-25T06:05:35;100821.78;;;11.39;89.04
59419;BME280;45224;50.904;6.038;2023-05-25T06:07:06;100823.56;;;11.44;88.93
59419;BME280;45224;50.904;6.038;2023-05-25T06:08:36;100823.00;;;11.67;88.04
59419;BME280;45224;50.904;6.038;2023-05-25T06:10:07;100818.78;;;11.75;87.02
59419;BME280;45224;50.904;6.038;2023-05-25T06:11:38;100829.72;;;11.52;87.22
59419;BME280;45224;50.904;6.038;2023-05-25T06:13:10;100823.88;;;11.69;87.37
59419;BME280;45224;50.904;6.038;2023-05-25T06:14:41;100824.97;;;11.90;86.56
59419;BME280;45224;50.904;6.038;2023-05-25T06:16:12;100830.41;;;12.08;86.07
59419;BME280;45224;50.904;6.038;2023-05-25T06:17:42;100832.31;;;12.24;84.75
59419;BME280;45224;50.904;6.038;2023-05-25T06:19:15;100830.41;;;12.07;84.86
59419;BME280;45224;50.904;6.038;2023-05-25T06:20:45;100824.53;;;12.24;84.42
59419;BME280;45224;50.904;6.038;2023-05-25T06:22:16;100829.78;;;12.32;83.70
59419;BME280;45224;50.904;6.038;2023-05-25T06:23:46;100827.25;;;12.40;83.82
59419;BME280;45224;50.904;6.038;2023-05-25T06:25:17;100834.06;;;12.29;83.62
59419;BME280;45224;50.904;6.038;2023-05-25T06:26:48;100830.75;;;12.42;83.48
59419;BME280;45224;50.904;6.038;2023-05-25T06:28:19;100830.91;;;12.64;82.49
59419;BME280;45224;50.904;6.038;2023-05-25T06:29:49;100827.56;;;12.77;81.98
59419;BME280;45224;50.904;6.038;2023-05-25T06:31:20;100831.06;;;12.85;81.34
59419;BME280;45224;50.904;6.038;2023-05-25T06:32:50;100832.00;;;12.96;81.04
59419;BME280;45224;50.904;6.038;2023-05-25T06:34:21;100841.50;;;12.91;80.86
59419;BME280;45224;50.904;6.038;2023-05-25T06:35:51;100837.19;;;12.93;80.07
59419;BME280;45224;50.904;6.038;2023-05-25T06:37:27;100838.16;;;13.11;79.28
59419;BME280;45224;50.904;6.038;2023-05-25T06:39:06;100847.78;;;13.23;78.30
59419;BME280;45224;50.904;6.038;2023-05-25T06:40:36;100843.47;;;13.29;78.88
59419;BME280;45224;50.904;6.038;2023-05-25T06:42:08;100849.66;;;13.42;78.54
59419;BME280;45224;50.904;6.038;2023-05-25T06:43:39;100842.78;;;13.54;77.85
59419;BME280;45224;50.904;6.038;2023-05-25T06:45:16;100858.38;;;13.55;78.40
59419;BME280;45224;50.904;6.038;2023-05-25T06:46:46;100852.38;;;13.72;77.96
59419;BME280;45224;50.904;6.038;2023-05-25T06:48:18;100847.22;;;13.79;77.63
59419;BME280;45224;50.904;6.038;2023-05-25T06:49:49;100852.44;;;13.84;78.16
59419;BME280;45224;50.904;6.038;2023-05-25T06:51:20;100851.53;;;13.82;77.08
59419;BME280;45224;50.904;6.038;2023-05-25T06:52:50;100859.38;;;13.91;75.07
59419;BME280;45224;50.904;6.038;2023-05-25T06:54:21;100859.22;;;13.56;76.16
59419;BME280;45224;50.904;6.038;2023-05-25T06:55:51;100862.72;;;13.59;78.20
59419;BME280;45224;50.904;6.038;2023-05-25T06:57:22;100862.78;;;13.75;77.79
59419;BME280;45224;50.904;6.038;2023-05-25T06:58:53;100857.47;;;13.53;77.89
59419;BME280;45224;50.904;6.038;2023-05-25T07:00:24;100858.28;;;13.41;79.05
59419;BME280;45224;50.904;6.038;2023-05-25T07:01:54;100859.31;;;13.69;77.67
59419;BME280;45224;50.904;6.038;2023-05-25T07:03:25;100859.34;;;13.85;77.03
59419;BME280;45224;50.904;6.038;2023-05-25T07:04:56;100862.00;;;13.96;75.68
59419;BME280;45224;50.904;6.038;2023-05-25T07:06:26;100859.41;;;14.10;74.62
59419;BME280;45224;50.904;6.038;2023-05-25T07:07:56;100854.25;;;14.16;74.37
59419;BME280;45224;50.904;6.038;2023-05-25T07:09:27;100846.47;;;14.34;74.46
59419;BME280;45224;50.904;6.038;2023-05-25T07:10:58;100859.47;;;14.43;73.40
59419;BME280;45224;50.904;6.038;2023-05-25T07:12:28;100851.69;;;14.54;73.09
59419;BME280;45224;50.904;6.038;2023-05-25T07:13:58;100856.09;;;14.62;73.38
59419;BME280;45224;50.904;6.038;2023-05-25T07:15:29;100860.41;;;14.84;71.90
59419;BME280;45224;50.904;6.038;2023-05-25T07:16:59;100866.47;;;14.83;72.51
59419;BME280;45224;50.904;6.038;2023-05-25T07:18:30;100856.06;;;14.66;72.76
59419;BME280;45224;50.904;6.038;2023-05-25T07:20:02;100860.38;;;14.52;72.79
59419;BME280;45224;50.904;6.038;2023-05-25T07:21:33;100859.53;;;14.77;73.06
59419;BME280;45224;50.904;6.038;2023-05-25T07:23:03;100861.28;;;14.94;72.37
59419;BME280;45224;50.904;6.038;2023-05-25T07:24:34;100870.81;;;15.06;72.07
59419;BME280;45224;50.904;6.038;2023-05-25T07:26:05;100868.19;;;15.21;70.25
59419;BME280;45224;50.904;6.038;2023-05-25T07:27:35;100869.91;;;15.30;71.43
59419;BME280;45224;50.904;6.038;2023-05-25T07:29:06;100867.28;;;15.34;68.89
59419;BME280;45224;50.904;6.038;2023-05-25T07:30:36;100864.59;;;15.59;68.55
59419;BME280;45224;50.904;6.038;2023-05-25T07:32:07;100873.25;;;15.72;68.50
59419;BME280;45224;50.904;6.038;2023-05-25T07:33:37;100871.47;;;15.86;68.25
59419;BME280;45224;50.904;6.038;2023-05-25T07:35:08;100871.56;;;15.62;68.48
59419;BME280;45224;50.904;6.038;2023-05-25T07:36:38;100884.69;;;15.20;70.08
59419;BME280;45224;50.904;6.038;2023-05-25T07:38:09;100879.31;;;15.71;69.18
59419;BME280;45224;50.904;6.038;2023-05-25T07:39:39;100875.03;;;15.58;69.07
59419;BME280;45224;50.904;6.038;2023-05-25T07:41:10;100874.06;;;15.91;67.81
59419;BME280;45224;50.904;6.038;2023-05-25T07:42:42;100874.78;;;16.16;66.53
59419;BME280;45224;50.904;6.038;2023-05-25T07:44:13;100876.50;;;16.23;65.81
59419;BME280;45224;50.904;6.038;2023-05-25T07:45:43;100880.88;;;16.20;66.91
59419;BME280;45224;50.904;6.038;2023-05-25T07:47:14;100865.03;;;16.46;66.44
59419;BME280;45224;50.904;6.038;2023-05-25T07:48:45;100872.75;;;16.61;65.37
59419;BME280;45224;50.904;6.038;2023-05-25T07:50:15;100871.78;;;16.76;63.77
59419;BME280;45224;50.904;6.038;2023-05-25T07:51:46;100879.72;;;16.63;64.32
59419;BME280;45224;50.904;6.038;2023-05-25T07:53:16;100877.13;;;16.58;64.17
59419;BME280;45224;50.904;6.038;2023-05-25T07:54:47;100871.72;;;16.86;63.80
59419;BME280;45224;50.904;6.038;2023-05-25T07:56:17;100873.22;;;17.13;62.95
59419;BME280;45224;50.904;6.038;2023-05-25T07:57:48;100873.88;;;17.35;62.98
59419;BME280;45224;50.904;6.038;2023-05-25T07:59:18;100882.78;;;17.14;61.11
59419;BME280;45224;50.904;6.038;2023-05-25T08:00:49;100880.16;;;17.17;61.20
59419;BME280;45224;50.904;6.038;2023-05-25T08:02:19;100877.81;;;16.86;62.75
59419;BME280;45224;50.904;6.038;2023-05-25T08:03:50;100880.25;;;17.05;60.88
59419;BME280;45224;50.904;6.038;2023-05-25T08:05:20;100879.19;;;17.24;61.40